createdAt,value
2023-03-01T00:00:19.083Z,51.80
2023-03-01T00:02:20.882Z,51.90
2023-03-01T00:04:22.641Z,51.90
2023-03-01T00:06:25.056Z,52.10
2023-03-01T00:08:27.070Z,51.90
2023-03-01T00:10:28.760Z,51.80
2023-03-01T00:12:31.899Z,51.80
2023-03-01T00:14:33.626Z,51.80
2023-03-01T00:16:37.019Z,51.80
2023-03-01T00:18:38.710Z,51.70
2023-03-01T00:20:40.481Z,51.70
2023-03-01T00:22:42.145Z,51.90
2023-03-01T00:24:43.802Z,52.00
2023-03-01T00:26:45.593Z,51.90
2023-03-01T00:28:47.525Z,52.10
2023-03-01T00:30:49.312Z,52.10
2023-03-01T00:32:50.976Z,52.10
2023-03-01T00:34:55.482Z,52.20
2023-03-01T00:37:06.128Z,52.20
2023-03-01T00:39:11.284Z,52.10
2023-03-01T00:41:16.978Z,51.90
2023-03-01T00:43:18.917Z,51.90
2023-03-01T00:45:20.651Z,52.00
2023-03-01T00:47:22.320Z,52.00
2023-03-01T00:49:25.179Z,51.90
2023-03-01T00:51:27.965Z,51.90
2023-03-01T00:53:30.802Z,51.90
2023-03-01T00:55:32.440Z,52.00
2023-03-01T00:57:34.784Z,52.20
2023-03-01T00:59:36.441Z,52.10
2023-03-01T01:01:38.335Z,52.00
2023-03-01T01:03:39.992Z,52.10
2023-03-01T01:05:41.619Z,52.30
2023-03-01T01:07:43.237Z,52.30
2023-03-01T01:09:44.876Z,52.40
2023-03-01T01:11:47.904Z,52.50
2023-03-01T01:13:49.895Z,52.50
2023-03-01T01:15:51.625Z,52.60
2023-03-01T01:17:53.323Z,52.60
2023-03-01T01:19:54.964Z,52.50
2023-03-01T01:21:56.581Z,52.60
2023-03-01T01:23:58.453Z,52.60
2023-03-01T01:26:26.631Z,52.60
2023-03-01T01:28:28.340Z,52.50
2023-03-01T01:30:30.278Z,52.60
2023-03-01T01:32:31.952Z,52.50
2023-03-01T01:34:33.629Z,52.60
2023-03-01T01:36:35.646Z,52.70
2023-03-01T01:38:37.981Z,52.60
2023-03-01T01:40:46.550Z,52.40
2023-03-01T01:42:48.374Z,52.50
2023-03-01T01:45:09.978Z,52.70
2023-03-01T01:47:17.548Z,52.90
2023-03-01T01:49:19.168Z,52.80
2023-03-01T01:51:23.245Z,52.80
2023-03-01T01:53:25.064Z,53.00
2023-03-01T01:55:28.426Z,52.90
2023-03-01T01:57:38.120Z,53.00
2023-03-01T01:59:41.477Z,53.10
2023-03-01T02:01:43.736Z,53.20
2023-03-01T02:03:46.872Z,53.00
2023-03-01T02:05:55.603Z,53.10
2023-03-01T02:07:59.118Z,53.20
2023-03-01T02:10:00.805Z,53.10
2023-03-01T02:12:02.892Z,53.00
2023-03-01T02:14:05.160Z,53.10
2023-03-01T02:16:09.852Z,52.90
2023-03-01T02:18:13.241Z,53.00
2023-03-01T02:20:14.830Z,53.00
2023-03-01T02:22:21.945Z,53.00
2023-03-01T02:24:36.036Z,53.00
2023-03-01T02:26:42.384Z,53.10
2023-03-01T02:28:44.693Z,53.10
2023-03-01T02:31:07.145Z,53.20
2023-03-01T02:33:08.903Z,53.30
2023-03-01T02:35:12.901Z,53.40
2023-03-01T02:37:15.857Z,53.40
2023-03-01T02:39:26.837Z,53.20
2023-03-01T02:41:29.501Z,53.30
2023-03-01T02:43:33.383Z,53.20
2023-03-01T02:45:35.029Z,53.20
2023-03-01T02:47:36.639Z,53.10
2023-03-01T02:49:38.547Z,53.10
2023-03-01T02:51:40.596Z,53.10
2023-03-01T02:53:45.105Z,53.20
2023-03-01T02:55:46.750Z,53.10
2023-03-01T02:57:51.857Z,53.30
2023-03-01T02:59:54.678Z,53.20
2023-03-01T03:01:56.328Z,53.50
2023-03-01T03:03:58.178Z,53.50
2023-03-01T03:05:59.903Z,53.50
2023-03-01T03:08:02.947Z,53.60
2023-03-01T03:10:09.908Z,53.50
2023-03-01T03:12:11.607Z,53.60
2023-03-01T03:14:14.860Z,53.70
2023-03-01T03:16:19.855Z,53.60
2023-03-01T03:18:21.926Z,53.60
2023-03-01T03:20:25.504Z,53.60
2023-03-01T03:22:29.669Z,53.60
2023-03-01T03:24:38.733Z,53.50
2023-03-01T03:26:40.372Z,53.80
2023-03-01T03:28:42.017Z,53.60
2023-03-01T03:30:44.126Z,53.70
2023-03-01T03:32:56.042Z,53.50
2023-03-01T03:34:57.709Z,53.50
2023-03-01T03:37:00.376Z,53.60
2023-03-01T03:39:02.033Z,53.80
2023-03-01T03:41:04.975Z,53.50
2023-03-01T03:43:08.472Z,53.50
2023-03-01T03:45:10.136Z,53.60
2023-03-01T03:47:11.785Z,53.50
2023-03-01T03:49:13.393Z,53.60
2023-03-01T03:51:16.258Z,53.50
2023-03-01T03:53:18.076Z,53.50
2023-03-01T03:55:20.396Z,53.40
2023-03-01T03:57:22.261Z,53.70
2023-03-01T03:59:23.926Z,53.90
2023-03-01T04:01:25.821Z,53.90
2023-03-01T04:03:28.202Z,53.60
2023-03-01T04:05:30.063Z,53.50
2023-03-01T04:07:31.706Z,53.60
2023-03-01T04:09:33.403Z,53.60
2023-03-01T04:11:42.283Z,53.50
2023-03-01T04:13:43.931Z,53.70
2023-03-01T04:15:45.568Z,54.10
2023-03-01T04:17:47.710Z,53.90
2023-03-01T04:19:49.704Z,54.00
2023-03-01T04:21:51.444Z,53.80
2023-03-01T04:23:53.530Z,53.80
2023-03-01T04:25:56.558Z,53.90
2023-03-01T04:27:58.274Z,53.80
2023-03-01T04:30:00.024Z,53.50
2023-03-01T04:32:01.842Z,53.60
2023-03-01T04:34:03.709Z,53.90
2023-03-01T04:36:06.308Z,54.20
2023-03-01T04:38:08.492Z,54.10
2023-03-01T04:40:17.598Z,54.10
2023-03-01T04:42:19.328Z,54.10
2023-03-01T04:44:20.977Z,54.10
2023-03-01T04:46:23.085Z,54.10
2023-03-01T04:48:24.855Z,54.00
2023-03-01T04:50:26.693Z,54.10
2023-03-01T04:52:28.359Z,54.10
2023-03-01T04:54:30.550Z,54.00
2023-03-01T04:56:32.668Z,54.10
2023-03-01T04:58:34.560Z,54.10
2023-03-01T05:00:36.309Z,54.00
2023-03-01T05:02:38.007Z,54.10
2023-03-01T05:04:39.649Z,54.20
2023-03-01T05:06:41.425Z,54.00
2023-03-01T05:08:43.420Z,54.00
2023-03-01T05:10:46.991Z,53.80
2023-03-01T05:12:48.795Z,53.80
2023-03-01T05:14:52.270Z,53.90
2023-03-01T05:16:53.907Z,53.90
2023-03-01T05:18:56.435Z,53.60
2023-03-01T05:21:08.251Z,53.50
2023-03-01T05:23:09.970Z,53.70
2023-03-01T05:25:11.746Z,53.70
2023-03-01T05:27:14.919Z,53.60
2023-03-01T05:29:16.581Z,53.60
2023-03-01T05:31:18.279Z,53.70
2023-03-01T05:33:19.996Z,53.70
2023-03-01T05:35:22.168Z,53.60
2023-03-01T05:37:23.820Z,53.80
2023-03-01T05:39:26.805Z,53.70
2023-03-01T05:41:28.924Z,53.70
2023-03-01T05:43:36.652Z,53.70
2023-03-01T05:45:39.062Z,53.80
2023-03-01T05:47:44.388Z,53.60
2023-03-01T05:49:46.065Z,53.60
2023-03-01T05:51:51.514Z,53.50
2023-03-01T05:53:53.205Z,53.60
2023-03-01T05:55:54.938Z,53.40
2023-03-01T05:57:58.672Z,53.40
2023-03-01T06:00:00.407Z,53.60
2023-03-01T06:02:02.041Z,53.70
2023-03-01T06:04:04.110Z,53.50
2023-03-01T06:06:05.953Z,53.50
2023-03-01T06:08:08.125Z,53.40
2023-03-01T06:10:10.871Z,53.40
2023-03-01T06:12:13.913Z,53.40
2023-03-01T06:14:15.710Z,53.40
2023-03-01T06:16:17.458Z,53.30
2023-03-01T06:18:19.175Z,53.40
2023-03-01T06:20:21.994Z,53.20
2023-03-01T06:22:23.627Z,53.30
2023-03-01T06:24:25.580Z,53.40
2023-03-01T06:26:27.380Z,53.50
2023-03-01T06:28:29.201Z,53.30
2023-03-01T06:30:30.954Z,53.30
2023-03-01T06:32:32.844Z,53.20
2023-03-01T06:34:35.045Z,53.10
2023-03-01T06:36:36.830Z,53.20
2023-03-01T06:38:38.498Z,53.40
2023-03-01T06:40:40.141Z,53.20
2023-03-01T06:42:42.982Z,53.10
2023-03-01T06:44:45.415Z,53.10
2023-03-01T06:46:47.200Z,53.20
2023-03-01T06:48:48.876Z,53.00
2023-03-01T06:50:50.644Z,53.30
2023-03-01T06:52:56.173Z,53.50
2023-03-01T06:54:57.821Z,53.60
2023-03-01T06:56:59.477Z,53.50
2023-03-01T06:59:01.199Z,54.30
2023-03-01T07:01:06.553Z,53.30
2023-03-01T07:03:09.322Z,53.40
2023-03-01T07:05:11.015Z,53.40
2023-03-01T07:07:12.757Z,53.50
2023-03-01T07:09:14.443Z,53.50
2023-03-01T07:11:16.598Z,53.40
2023-03-01T07:13:18.263Z,53.40
2023-03-01T07:15:19.968Z,53.40
2023-03-01T07:17:21.662Z,53.60
2023-03-01T07:19:23.703Z,53.60
2023-03-01T07:21:25.353Z,53.50
2023-03-01T07:23:27.000Z,53.50
2023-03-01T07:25:30.166Z,53.30
2023-03-01T07:27:31.786Z,53.10
2023-03-01T07:29:33.531Z,53.10
2023-03-01T07:31:35.286Z,53.10
2023-03-01T07:33:36.932Z,53.10
2023-03-01T07:35:38.664Z,53.20
2023-03-01T07:37:40.314Z,53.00
2023-03-01T07:39:41.938Z,53.00
2023-03-01T07:41:43.622Z,53.00
2023-03-01T07:43:45.384Z,53.20
2023-03-01T07:45:47.412Z,53.00
2023-03-01T07:47:50.801Z,53.10
2023-03-01T07:49:52.554Z,53.10
2023-03-01T07:51:54.281Z,53.00
2023-03-01T07:53:55.989Z,53.20
2023-03-01T07:56:14.112Z,53.20
2023-03-01T07:58:15.837Z,52.90
2023-03-01T08:00:17.704Z,52.90
2023-03-01T08:02:19.900Z,52.90
2023-03-01T08:04:21.965Z,52.90
2023-03-01T08:06:23.853Z,53.00
2023-03-01T08:08:25.654Z,52.90
2023-03-01T08:10:27.423Z,52.70
2023-03-01T08:12:29.114Z,52.80
2023-03-01T08:14:31.261Z,52.80
2023-03-01T08:16:34.577Z,53.00
2023-03-01T08:18:36.533Z,53.10
2023-03-01T08:20:38.208Z,53.10
2023-03-01T08:22:39.926Z,53.00
2023-03-01T08:24:41.592Z,53.00
2023-03-01T08:26:43.364Z,53.20
2023-03-01T08:28:45.472Z,53.10
2023-03-01T08:30:47.132Z,53.20
2023-03-01T08:32:49.009Z,53.20
2023-03-01T08:34:50.739Z,53.20
2023-03-01T08:36:53.193Z,52.90
2023-03-01T08:38:54.969Z,52.90
2023-03-01T08:41:02.137Z,53.00
2023-03-01T08:43:04.352Z,53.00
2023-03-01T08:45:06.332Z,53.00
2023-03-01T08:47:08.123Z,53.10
2023-03-01T08:49:14.369Z,53.00
2023-03-01T08:51:18.075Z,53.00
2023-03-01T08:53:19.896Z,53.00
2023-03-01T08:55:21.566Z,53.00
2023-03-01T08:57:23.424Z,53.00
2023-03-01T08:59:26.343Z,52.90
2023-03-01T09:01:28.053Z,53.00
2023-03-01T09:03:29.776Z,52.80
2023-03-01T09:05:35.190Z,53.40
2023-03-01T09:07:36.893Z,52.60
2023-03-01T09:09:38.688Z,52.60
2023-03-01T09:11:40.448Z,52.50
2023-03-01T09:13:44.267Z,52.60
2023-03-01T09:15:46.109Z,52.70
2023-03-01T09:17:47.910Z,52.40
2023-03-01T09:19:50.347Z,52.40
2023-03-01T09:21:54.778Z,52.50
2023-03-01T09:23:57.336Z,52.50
2023-03-01T09:25:59.000Z,52.60
2023-03-01T09:28:00.640Z,52.70
2023-03-01T09:30:02.556Z,52.60
2023-03-01T09:32:04.396Z,52.60
2023-03-01T09:34:06.556Z,52.60
2023-03-01T09:36:10.959Z,52.30
2023-03-01T09:38:14.124Z,52.10
2023-03-01T09:40:17.537Z,52.30
2023-03-01T09:42:19.194Z,52.40
2023-03-01T09:44:39.186Z,52.40
2023-03-01T09:46:43.254Z,52.20
2023-03-01T09:49:02.648Z,52.00
2023-03-01T09:51:07.085Z,52.00
2023-03-01T09:53:14.472Z,52.10
2023-03-01T09:55:18.702Z,52.10
2023-03-01T09:57:26.689Z,52.30
2023-03-01T09:59:36.579Z,52.30
2023-03-01T10:01:50.595Z,52.30
2023-03-01T10:04:05.382Z,52.30
2023-03-01T10:06:23.907Z,52.40
2023-03-01T10:08:37.085Z,52.30
2023-03-01T10:10:40.534Z,52.20
2023-03-01T10:12:43.469Z,52.20
2023-03-01T10:15:11.609Z,52.30
2023-03-01T10:17:13.313Z,52.30
2023-03-01T10:19:28.011Z,52.20
2023-03-01T10:21:32.661Z,52.10
2023-03-01T10:23:35.557Z,52.10
2023-03-01T10:25:43.733Z,51.90
2023-03-01T10:27:55.895Z,51.90
2023-03-01T10:30:03.481Z,51.80
2023-03-01T10:32:07.619Z,51.50
2023-03-01T10:34:20.440Z,51.40
2023-03-01T10:36:22.521Z,51.50
2023-03-01T10:38:24.210Z,51.50
2023-03-01T10:40:25.882Z,51.70
2023-03-01T10:42:29.470Z,51.70
2023-03-01T10:44:39.219Z,51.50
2023-03-01T10:46:40.943Z,51.70
2023-03-01T10:48:42.708Z,51.70
2023-03-01T10:50:52.414Z,51.70
2023-03-01T10:53:02.287Z,51.70
2023-03-01T10:55:19.364Z,51.70
2023-03-01T10:57:51.219Z,51.60
2023-03-01T11:00:02.456Z,51.70
2023-03-01T11:02:23.508Z,51.30
2023-03-01T11:04:26.490Z,51.00
2023-03-01T11:06:28.202Z,51.10
2023-03-01T11:08:34.877Z,51.10
2023-03-01T11:10:37.376Z,50.90
2023-03-01T11:12:39.177Z,50.60
2023-03-01T11:14:47.361Z,50.60
2023-03-01T11:16:50.140Z,50.70
2023-03-01T11:19:10.294Z,50.40
2023-03-01T11:21:12.011Z,50.70
2023-03-01T11:23:14.719Z,50.20
2023-03-01T11:25:16.749Z,50.30
2023-03-01T11:27:23.830Z,50.20
2023-03-01T11:29:29.731Z,50.50
2023-03-01T11:31:35.373Z,49.80
2023-03-01T11:33:37.156Z,49.90
2023-03-01T11:35:43.186Z,50.10
2023-03-01T11:37:55.298Z,49.80
2023-03-01T11:40:00.704Z,49.90
2023-03-01T11:42:23.749Z,49.80
2023-03-01T11:44:29.060Z,49.70
2023-03-01T11:46:33.739Z,49.90
2023-03-01T11:48:55.813Z,49.90
2023-03-01T11:50:58.774Z,50.00
2023-03-01T11:53:21.415Z,50.10
2023-03-01T11:55:27.638Z,49.80
2023-03-01T11:57:41.276Z,50.00
2023-03-01T12:00:03.938Z,50.00
2023-03-01T12:02:05.671Z,49.50
2023-03-01T12:04:07.404Z,49.80
2023-03-01T12:06:15.022Z,50.00
2023-03-01T12:08:16.786Z,49.80
2023-03-01T12:10:21.619Z,49.80
2023-03-01T12:12:26.829Z,49.80
2023-03-01T12:14:54.667Z,49.10
2023-03-01T12:17:05.632Z,48.30
2023-03-01T12:19:25.629Z,48.90
2023-03-01T12:21:36.646Z,48.90
2023-03-01T12:24:07.879Z,48.50
2023-03-01T12:26:14.272Z,48.00
2023-03-01T12:28:34.699Z,47.60
2023-03-01T12:30:36.383Z,47.90
2023-03-01T12:32:56.890Z,48.60
2023-03-01T12:35:06.826Z,48.50
2023-03-01T12:37:27.256Z,48.30
2023-03-01T12:39:47.850Z,48.40
2023-03-01T12:41:59.034Z,48.00
2023-03-01T12:44:14.809Z,48.40
2023-03-01T12:46:22.408Z,48.50
2023-03-01T12:48:42.996Z,48.30
2023-03-01T12:50:55.020Z,47.60
2023-03-01T12:52:57.518Z,47.10
2023-03-01T12:55:01.461Z,47.30
2023-03-01T12:57:16.493Z,46.40
2023-03-01T12:59:27.374Z,47.20
2023-03-01T13:01:34.797Z,45.90
2023-03-01T13:03:36.563Z,46.90
2023-03-01T13:05:56.934Z,46.70
2023-03-01T13:08:17.577Z,47.20
2023-03-01T13:10:19.657Z,47.10
2023-03-01T13:12:40.246Z,46.40
2023-03-01T13:14:46.345Z,46.90
2023-03-01T13:16:50.307Z,47.10
2023-03-01T13:19:06.735Z,47.20
2023-03-01T13:21:08.551Z,46.90
2023-03-01T13:23:13.501Z,46.70
2023-03-01T13:25:19.204Z,47.20
2023-03-01T13:27:26.072Z,47.40
2023-03-01T13:29:28.240Z,46.80
2023-03-01T13:31:29.909Z,46.80
2023-03-01T13:33:31.601Z,46.40
2023-03-01T13:35:43.384Z,46.90
2023-03-01T13:37:45.691Z,46.80
2023-03-01T13:39:48.038Z,45.50
2023-03-01T13:41:51.206Z,46.40
2023-03-01T13:43:52.913Z,46.30
2023-03-01T13:45:55.294Z,46.80
2023-03-01T13:47:59.551Z,46.50
2023-03-01T13:50:03.586Z,47.10
2023-03-01T13:52:06.452Z,47.00
2023-03-01T13:54:12.288Z,47.00
2023-03-01T13:56:16.416Z,46.60
2023-03-01T13:58:28.490Z,47.20
2023-03-01T14:00:30.142Z,47.80
2023-03-01T14:02:32.428Z,47.30
2023-03-01T14:04:36.803Z,47.20
2023-03-01T14:06:38.565Z,46.90
2023-03-01T14:08:43.272Z,46.60
2023-03-01T14:10:55.874Z,45.70
2023-03-01T14:13:16.400Z,45.50
2023-03-01T14:15:27.609Z,45.90
2023-03-01T14:17:45.673Z,45.90
2023-03-01T14:19:48.547Z,44.90
2023-03-01T14:21:59.049Z,45.60
2023-03-01T14:24:01.523Z,45.70
2023-03-01T14:26:03.267Z,45.20
2023-03-01T14:28:17.346Z,45.20
2023-03-01T14:30:22.357Z,44.90
2023-03-01T14:32:31.149Z,44.70
2023-03-01T14:34:33.211Z,45.30
2023-03-01T14:36:35.289Z,44.90
2023-03-01T14:38:41.088Z,44.70
2023-03-01T14:40:43.252Z,45.30
2023-03-01T14:42:44.992Z,44.20
2023-03-01T14:44:48.604Z,45.20
2023-03-01T14:46:53.818Z,44.40
2023-03-01T14:48:57.656Z,44.40
2023-03-01T14:51:01.013Z,45.40
2023-03-01T14:53:04.630Z,45.40
2023-03-01T14:55:08.290Z,44.20
2023-03-01T14:57:36.083Z,44.60
2023-03-01T14:59:37.768Z,44.40
2023-03-01T15:01:40.182Z,45.20
2023-03-01T15:03:46.222Z,45.20
2023-03-01T15:05:48.019Z,44.60
2023-03-01T15:07:50.561Z,45.20
2023-03-01T15:09:52.433Z,43.90
2023-03-01T15:11:54.263Z,44.60
2023-03-01T15:13:56.200Z,45.00
2023-03-01T15:16:09.562Z,45.20
2023-03-01T15:18:30.389Z,44.20
2023-03-01T15:20:36.225Z,44.60
2023-03-01T15:22:37.950Z,43.80
2023-03-01T15:24:39.732Z,42.90
2023-03-01T15:26:43.470Z,44.40
2023-03-01T15:28:50.675Z,43.40
2023-03-01T15:30:57.594Z,43.40
2023-03-01T15:33:19.822Z,43.60
2023-03-01T15:35:41.488Z,43.30
2023-03-01T15:37:48.744Z,44.10
2023-03-01T15:39:57.116Z,44.10
2023-03-01T15:41:58.899Z,44.20
2023-03-01T15:44:01.332Z,44.20
2023-03-01T15:46:03.185Z,43.80
2023-03-01T15:48:27.299Z,43.20
2023-03-01T15:50:30.045Z,43.30
2023-03-01T15:52:40.220Z,43.40
2023-03-01T15:54:42.075Z,43.60
2023-03-01T15:56:44.686Z,43.70
2023-03-01T15:58:47.159Z,43.40
2023-03-01T16:01:00.404Z,43.70
2023-03-01T16:03:03.302Z,43.50
2023-03-01T16:05:05.513Z,43.80
2023-03-01T16:07:07.401Z,43.90
2023-03-01T16:09:09.570Z,44.20
2023-03-01T16:11:16.429Z,44.20
2023-03-01T16:13:18.690Z,43.90
2023-03-01T16:15:32.972Z,44.00
2023-03-01T16:17:35.625Z,44.00
2023-03-01T16:19:38.614Z,43.90
2023-03-01T16:21:40.492Z,43.90
2023-03-01T16:23:42.795Z,44.00
2023-03-01T16:25:44.539Z,44.40
2023-03-01T16:27:47.300Z,44.70
2023-03-01T16:29:49.210Z,44.60
2023-03-01T16:31:51.023Z,44.50
2023-03-01T16:33:54.367Z,44.60
2023-03-01T16:35:56.542Z,44.70
2023-03-01T16:38:00.071Z,44.60
2023-03-01T16:40:01.852Z,44.70
2023-03-01T16:42:03.565Z,44.70
2023-03-01T16:44:05.398Z,44.80
2023-03-01T16:46:23.812Z,44.70
2023-03-01T16:48:26.078Z,44.80
2023-03-01T16:50:28.024Z,44.70
2023-03-01T16:52:29.834Z,44.90
2023-03-01T16:54:31.530Z,45.00
2023-03-01T16:56:35.627Z,45.00
2023-03-01T16:58:38.356Z,45.00
2023-03-01T17:00:40.140Z,45.00
2023-03-01T17:02:42.525Z,45.10
2023-03-01T17:04:44.320Z,45.20
2023-03-01T17:06:47.726Z,45.30
2023-03-01T17:08:49.540Z,45.40
2023-03-01T17:10:51.302Z,45.40
2023-03-01T17:12:53.056Z,45.30
2023-03-01T17:14:54.775Z,45.50
2023-03-01T17:16:56.555Z,45.90
2023-03-01T17:18:58.312Z,45.50
2023-03-01T17:21:00.172Z,45.60
2023-03-01T17:23:02.200Z,45.80
2023-03-01T17:25:04.128Z,45.80
2023-03-01T17:27:06.126Z,45.80
2023-03-01T17:29:07.969Z,45.50
2023-03-01T17:31:09.815Z,45.60
2023-03-01T17:33:12.117Z,45.80
2023-03-01T17:35:14.145Z,46.00
2023-03-01T17:37:15.894Z,46.10
2023-03-01T17:39:18.142Z,46.10
2023-03-01T17:41:20.584Z,46.10
2023-03-01T17:43:22.418Z,46.30
2023-03-01T17:45:24.324Z,46.30
2023-03-01T17:47:26.137Z,46.30
2023-03-01T17:49:27.964Z,46.40
2023-03-01T17:51:30.171Z,46.30
2023-03-01T17:53:32.022Z,46.40
2023-03-01T17:55:33.691Z,46.50
2023-03-01T17:57:35.466Z,46.60
2023-03-01T17:59:37.347Z,46.70
2023-03-01T18:01:42.570Z,46.70
2023-03-01T18:03:47.859Z,46.80
2023-03-01T18:05:50.672Z,46.90
2023-03-01T18:07:52.852Z,46.90
2023-03-01T18:09:54.646Z,47.00
2023-03-01T18:11:56.365Z,46.90
2023-03-01T18:13:58.079Z,47.10
2023-03-01T18:16:00.890Z,47.10
2023-03-01T18:18:02.643Z,47.10
2023-03-01T18:20:04.883Z,47.20
2023-03-01T18:22:07.850Z,47.30
2023-03-01T18:24:09.574Z,47.20
2023-03-01T18:26:12.734Z,47.30
2023-03-01T18:28:14.515Z,47.30
2023-03-01T18:30:16.423Z,47.40
2023-03-01T18:32:18.259Z,47.40
2023-03-01T18:34:20.087Z,47.40
2023-03-01T18:36:26.318Z,47.40
2023-03-01T18:38:29.195Z,47.50
2023-03-01T18:40:32.107Z,47.60
2023-03-01T18:42:33.867Z,47.70
2023-03-01T18:44:36.162Z,47.80
2023-03-01T18:46:40.038Z,47.80
2023-03-01T18:48:42.240Z,47.80
2023-03-01T18:50:44.017Z,47.80
2023-03-01T18:52:45.721Z,48.50
2023-03-01T18:54:47.517Z,47.90
2023-03-01T18:56:49.336Z,47.90
2023-03-01T18:58:51.389Z,48.00
2023-03-01T19:00:53.146Z,48.10
2023-03-01T19:02:54.996Z,47.90
2023-03-01T19:04:56.834Z,48.00
2023-03-01T19:07:02.117Z,48.00
2023-03-01T19:09:04.731Z,48.20
2023-03-01T19:11:06.877Z,48.10
2023-03-01T19:13:08.629Z,48.10
2023-03-01T19:15:10.699Z,48.00
2023-03-01T19:17:12.489Z,47.80
2023-03-01T19:19:14.262Z,47.90
2023-03-01T19:21:16.714Z,47.70
2023-03-01T19:23:18.595Z,48.00
2023-03-01T19:25:20.390Z,48.20
2023-03-01T19:27:22.183Z,48.20
2023-03-01T19:29:24.055Z,48.20
2023-03-01T19:31:29.698Z,48.10
2023-03-01T19:33:32.839Z,48.20
2023-03-01T19:35:34.941Z,48.20
2023-03-01T19:37:36.718Z,48.30
2023-03-01T19:39:38.576Z,48.30
2023-03-01T19:41:40.932Z,48.30
2023-03-01T19:43:43.154Z,48.30
2023-03-01T19:45:46.211Z,48.40
2023-03-01T19:47:49.625Z,48.30
2023-03-01T19:49:52.950Z,48.30
2023-03-01T19:51:57.490Z,48.40
2023-03-01T19:53:59.345Z,48.50
2023-03-01T19:56:01.802Z,48.40
2023-03-01T19:58:04.325Z,48.50
2023-03-01T20:00:06.577Z,48.60
2023-03-01T20:02:14.216Z,48.70
2023-03-01T20:04:16.102Z,48.70
2023-03-01T20:06:20.270Z,48.60
2023-03-01T20:08:22.567Z,48.80
2023-03-01T20:10:27.812Z,48.70
2023-03-01T20:12:29.652Z,48.80
2023-03-01T20:14:34.441Z,48.90
2023-03-01T20:16:36.840Z,48.90
2023-03-01T20:18:38.737Z,48.90
2023-03-01T20:20:40.782Z,48.90
2023-03-01T20:22:42.845Z,48.90
2023-03-01T20:24:44.636Z,48.80
2023-03-01T20:26:46.539Z,49.40
2023-03-01T20:28:49.489Z,48.70
2023-03-01T20:30:51.269Z,48.70
2023-03-01T20:32:53.611Z,48.70
2023-03-01T20:34:55.923Z,48.80
2023-03-01T20:36:57.667Z,48.80
2023-03-01T20:38:59.370Z,48.80
2023-03-01T20:41:03.222Z,49.00
2023-03-01T20:43:05.042Z,49.00
2023-03-01T20:45:07.116Z,49.00
2023-03-01T20:47:08.858Z,48.90
2023-03-01T20:49:11.064Z,49.60
2023-03-01T20:51:13.278Z,49.00
2023-03-01T20:53:15.101Z,49.10
2023-03-01T20:55:16.852Z,49.20
2023-03-01T20:57:18.562Z,49.20
2023-03-01T20:59:20.453Z,49.10
2023-03-01T21:01:24.534Z,49.00
2023-03-01T21:03:26.517Z,49.00
2023-03-01T21:05:28.208Z,49.10
2023-03-01T21:07:29.998Z,49.10
2023-03-01T21:09:31.758Z,49.20
2023-03-01T21:11:33.434Z,49.30
2023-03-01T21:13:35.812Z,49.30
2023-03-01T21:15:37.628Z,49.30
2023-03-01T21:17:39.403Z,49.40
2023-03-01T21:19:43.675Z,49.40
2023-03-01T21:21:45.480Z,49.40
2023-03-01T21:23:47.242Z,49.40
2023-03-01T21:25:58.828Z,49.40
2023-03-01T21:28:01.054Z,49.40
2023-03-01T21:30:02.834Z,49.40
2023-03-01T21:32:05.323Z,49.40
2023-03-01T21:34:07.314Z,49.40
2023-03-01T21:36:09.904Z,49.50
2023-03-01T21:38:11.670Z,49.60
2023-03-01T21:40:13.618Z,49.80
2023-03-01T21:42:15.335Z,49.90
2023-03-01T21:44:17.021Z,50.00
2023-03-01T21:46:20.541Z,50.00
2023-03-01T21:48:22.570Z,50.00
2023-03-01T21:50:24.250Z,49.80
2023-03-01T21:52:26.045Z,49.80
2023-03-01T21:54:27.979Z,49.80
2023-03-01T21:56:31.737Z,49.80
2023-03-01T21:58:33.974Z,49.80
2023-03-01T22:00:39.571Z,49.80
2023-03-01T22:02:41.283Z,49.90
2023-03-01T22:04:43.225Z,49.80
2023-03-01T22:06:45.907Z,49.80
2023-03-01T22:08:48.921Z,49.90
2023-03-01T22:10:51.117Z,50.10
2023-03-01T22:12:53.787Z,50.00
2023-03-01T22:14:55.617Z,50.20
2023-03-01T22:16:57.677Z,50.10
2023-03-01T22:18:59.732Z,50.30
2023-03-01T22:21:05.217Z,50.20
2023-03-01T22:23:07.468Z,50.20
2023-03-01T22:25:09.962Z,50.20
2023-03-01T22:27:11.692Z,50.40
2023-03-01T22:29:15.200Z,50.30
2023-03-01T22:31:16.943Z,50.20
2023-03-01T22:33:18.758Z,50.20
2023-03-01T22:35:20.500Z,50.30
2023-03-01T22:37:22.254Z,50.40
2023-03-01T22:39:24.125Z,50.40
2023-03-01T22:41:26.996Z,50.30
2023-03-01T22:43:29.772Z,50.40
2023-03-01T22:45:32.445Z,50.40
2023-03-01T22:47:37.518Z,50.40
2023-03-01T22:49:39.349Z,50.40
2023-03-01T22:51:42.454Z,50.40
2023-03-01T22:53:44.644Z,50.50
2023-03-01T22:55:46.363Z,50.50
2023-03-01T22:57:51.532Z,50.50
2023-03-01T22:59:53.231Z,50.70
2023-03-01T23:01:55.070Z,50.50
2023-03-01T23:03:57.022Z,50.50
2023-03-01T23:05:58.797Z,50.50
2023-03-01T23:08:00.460Z,50.60
2023-03-01T23:10:02.360Z,50.70
2023-03-01T23:12:06.736Z,50.70
2023-03-01T23:14:08.757Z,50.70
2023-03-01T23:16:11.218Z,50.80
2023-03-01T23:18:13.269Z,50.90
2023-03-01T23:20:15.338Z,50.90
2023-03-01T23:22:19.264Z,50.80
2023-03-01T23:24:22.730Z,50.80
2023-03-01T23:26:29.105Z,51.00
2023-03-01T23:28:31.435Z,50.90
2023-03-01T23:30:33.160Z,51.00
2023-03-01T23:32:40.333Z,50.90
2023-03-01T23:34:43.800Z,50.90
2023-03-01T23:36:45.752Z,50.90
2023-03-01T23:38:48.628Z,50.90
2023-03-01T23:40:50.328Z,51.00
2023-03-01T23:42:52.010Z,51.00
2023-03-01T23:44:53.631Z,50.90
2023-03-01T23:46:55.645Z,51.00
2023-03-01T23:48:57.312Z,51.10
2023-03-01T23:51:03.151Z,51.10
2023-03-01T23:53:04.806Z,51.00
2023-03-01T23:55:08.472Z,51.20
2023-03-01T23:57:10.968Z,51.10
2023-03-01T23:59:17.263Z,51.10
